Airfield :
LOGIN :

Register | Disclaimer

   EN    FR    IT 

 










Legend :    VFR   Marginal VFR   IFR   Intensive IFR   Very Intensive IFR
Visi :
Ceiling :
>= 8 km
>= 3000ft
5 to 8 km
1000 to 3000 ft
1500m to 5 km
500 to 1000 ft
800 to 1500m
200 to 500 ft
< 800m
< 200 ft
Symbols :   Thunderstorms  Fog  Heavy snow  Heavy precipitations  Wind > 20 kt
SIGMETs :     Misc.  Thunderstorms  Icing  Turbulence  Mountain Waves  Volcanic Ashes






- Airport Elevation : 1197 ft
- IATA code : SPM


ETAD - Spangdahlem Ab

CURRENT METAR :
  • 130541Z AUTO 16006G15KT 9999 -RA OVC007 03/02 A2879 RMK AO2 CIG 005V007 CIG 006 RWY05 SLP753 $

EXPIRED METARs :
  • 130456Z AUTO 14007KT 9999 -RA OVC003 02/02 A2882 RMK AO2 DZB19E20RAB20 CIG 002 RWY24 SLP763 P0000 T00240023 $
  • 130419Z AUTO 13008KT 9999 -DZ OVC002 02/01 A2884 RMK AO2 DZB19 SLP770 $
  • 130411Z AUTO 11006KT 9999 OVC002 01/01 A2885 RMK AO2 SLP775 $
  • 130356Z AUTO 12005KT 9999 OVC002 01/01 A2886 RMK AO2 RAE26 PRESFR SLP778 P0000 T00130010 $
  • 130342Z AUTO 09003KT 6000 BR OVC003 01/01 A2888 RMK AO2 RAE26 SLP785 $
  • 130327Z AUTO 11005KT 9999 OVC003 01/01 A2889 RMK AO2 RAE26 CIG 003V005 SLP788 $
  • 130256Z AUTO 14004KT 9999 -RA OVC005 01/00 A2893 RMK AO2 RAE06SNB06E15RAB15E27DZB38E39RAB39E49RAB51 SLP802 P0000 60000 T00100004 57046 $

TAF AMD TAF ETAD
Valid from the 13 at 05:00 until the 14 at 11:00 UTC


130545Z 1305/1411 16012G25KT 8000 -RA OVC007 620258 510004 QNH2878INS
TEMPO 1305/1307 OVC005
BECMG 1307/1308 24015G25KT 8000 -RA BKN007 OVC015 620259 510004 QNH2882INS
BECMG 1310/1311 25015G28KT 8000 -RA BKN015 OVC020 620259 510005 QNH2884INS
BECMG 1314/1315 27015G25KT 9000 -SHRA BKN020 OVC035 610205 510004 QNH2903INS
BECMG 1320/1321 25012G25KT 9999 NSW BKN020 OVC035 610205 510004 QNH2914INS
BECMG 1401/1402 23012G22KT 8000 -RA OVC010 620109 QNH2910INS TX05/1309Z TN03/1305Z



MET'MAP, your aeronautical weather chart ! - Copyright ORBIFLY December 2007 - Disclaimer

ORBIFLY MET'MAP TEAM :

Programming & Development : Alexandra Zaïnal
Concept & original design : Baudouin d'Aumeries
Assistance for programming : Marc-Olivier Méhu
Technical & hardware support : Manuel Goepfert

Contact : metmap@orbifly.com




SOURCES & CREDITS :

   NOAA